createdAt,value
2023-02-14T00:00:43.849Z,6.30
2023-02-14T00:03:10.486Z,6.30
2023-02-14T00:05:37.109Z,6.30
2023-02-14T00:08:03.677Z,6.30
2023-02-14T00:10:30.221Z,6.30
2023-02-14T00:12:56.758Z,6.20
2023-02-14T00:15:23.613Z,6.20
2023-02-14T00:17:55.220Z,6.30
2023-02-14T00:20:26.015Z,6.20
2023-02-14T00:22:53.205Z,6.30
2023-02-14T00:25:19.916Z,6.30
2023-02-14T00:27:46.480Z,6.30
2023-02-14T00:30:14.003Z,6.30
2023-02-14T00:32:41.483Z,6.50
2023-02-14T00:35:09.281Z,6.30
2023-02-14T00:37:36.242Z,6.20
2023-02-14T00:40:03.459Z,6.20
2023-02-14T00:42:29.985Z,6.20
2023-02-14T00:44:56.555Z,6.20
2023-02-14T00:47:23.106Z,6.10
2023-02-14T00:49:49.649Z,6.00
2023-02-14T00:52:16.270Z,6.10
2023-02-14T00:54:42.876Z,6.10
2023-02-14T00:57:09.563Z,6.20
2023-02-14T00:59:36.199Z,6.10
2023-02-14T01:02:02.921Z,6.20
2023-02-14T01:04:29.542Z,6.20
2023-02-14T01:06:56.109Z,6.20
2023-02-14T01:09:22.717Z,6.20
2023-02-14T01:11:49.281Z,6.10
2023-02-14T01:14:16.018Z,6.10
2023-02-14T01:16:42.625Z,6.10
2023-02-14T01:19:09.331Z,6.20
2023-02-14T01:21:35.966Z,6.20
2023-02-14T01:24:05.745Z,6.20
2023-02-14T01:26:32.933Z,6.20
2023-02-14T01:28:59.562Z,6.20
2023-02-14T01:31:28.836Z,6.80
2023-02-14T01:33:56.720Z,6.20
2023-02-14T01:36:26.512Z,6.20
2023-02-14T01:38:55.494Z,6.20
2023-02-14T01:41:23.293Z,6.20
2023-02-14T01:44:02.725Z,6.20
2023-02-14T01:46:32.064Z,6.20
2023-02-14T01:49:11.954Z,6.20
2023-02-14T01:51:49.604Z,6.20
2023-02-14T01:54:18.362Z,6.30
2023-02-14T01:56:49.359Z,6.20
2023-02-14T01:59:20.809Z,6.20
2023-02-14T02:01:49.871Z,6.20
2023-02-14T02:04:22.054Z,6.20
2023-02-14T02:06:54.975Z,6.20
2023-02-14T02:09:41.694Z,6.20
2023-02-14T02:12:08.313Z,6.20
2023-02-14T02:14:35.123Z,6.20
2023-02-14T02:17:33.536Z,6.10
2023-02-14T02:20:33.852Z,6.20
2023-02-14T02:23:46.780Z,6.10
2023-02-14T02:26:34.193Z,6.10
2023-02-14T02:29:09.605Z,6.20
2023-02-14T02:31:58.455Z,6.20
2023-02-14T02:35:06.438Z,6.20
2023-02-14T02:37:41.545Z,6.10
2023-02-14T02:40:30.100Z,6.10
2023-02-14T02:43:30.225Z,6.10
2023-02-14T02:46:31.974Z,6.10
2023-02-14T02:50:03.788Z,6.10
2023-02-14T02:53:07.182Z,6.10
2023-02-14T02:56:31.086Z,6.00
2023-02-14T02:59:07.073Z,6.00
2023-02-14T03:01:39.176Z,6.00
2023-02-14T03:04:28.846Z,6.00
2023-02-14T03:06:56.208Z,6.00
2023-02-14T03:09:28.622Z,6.00
2023-02-14T03:12:19.149Z,6.10
2023-02-14T03:15:10.016Z,6.10
2023-02-14T03:17:57.759Z,6.10
2023-02-14T03:20:36.671Z,6.20
2023-02-14T03:23:27.978Z,6.10
2023-02-14T03:26:19.835Z,6.10
2023-02-14T03:29:01.955Z,6.10
2023-02-14T03:31:55.956Z,6.10
2023-02-14T03:34:46.836Z,6.10
2023-02-14T03:37:28.373Z,6.00
2023-02-14T03:40:17.586Z,6.10
2023-02-14T03:42:51.650Z,6.10
2023-02-14T03:45:27.657Z,5.90
2023-02-14T03:47:58.543Z,6.10
2023-02-14T03:50:26.833Z,6.10
2023-02-14T03:52:54.032Z,6.10
2023-02-14T03:55:34.702Z,6.10
2023-02-14T03:58:14.015Z,6.10
2023-02-14T04:00:42.238Z,6.10
2023-02-14T04:03:12.382Z,6.10
2023-02-14T04:05:43.643Z,6.10
2023-02-14T04:08:11.997Z,6.10
2023-02-14T04:10:40.063Z,6.10
2023-02-14T04:13:06.656Z,6.00
2023-02-14T04:15:33.231Z,6.00
2023-02-14T04:18:18.514Z,6.00
2023-02-14T04:20:45.116Z,6.00
2023-02-14T04:23:11.682Z,6.00
2023-02-14T04:25:40.331Z,6.00
2023-02-14T04:28:06.952Z,6.00
2023-02-14T04:30:33.532Z,6.00
2023-02-14T04:33:00.162Z,6.00
2023-02-14T04:35:26.762Z,5.90
2023-02-14T04:37:54.219Z,5.90
2023-02-14T04:40:20.999Z,5.90
2023-02-14T04:42:47.643Z,5.90
2023-02-14T04:45:14.910Z,5.90
2023-02-14T04:47:41.519Z,5.90
2023-02-14T04:50:08.539Z,5.90
2023-02-14T04:52:35.155Z,5.90
2023-02-14T04:55:01.771Z,5.60
2023-02-14T04:57:28.342Z,5.90
2023-02-14T04:59:54.908Z,5.90
2023-02-14T05:02:21.526Z,5.90
2023-02-14T05:04:49.748Z,6.00
2023-02-14T05:07:16.759Z,6.00
2023-02-14T05:09:43.352Z,6.00
2023-02-14T05:12:09.940Z,6.00
2023-02-14T05:14:36.535Z,6.00
2023-02-14T05:17:03.152Z,6.00
2023-02-14T05:19:29.782Z,6.00
2023-02-14T05:21:56.354Z,6.00
2023-02-14T05:24:23.055Z,6.00
2023-02-14T05:26:49.680Z,6.10
2023-02-14T05:29:16.255Z,6.90
2023-02-14T05:31:43.056Z,6.00
2023-02-14T05:34:09.820Z,6.00
2023-02-14T05:36:36.486Z,6.00
2023-02-14T05:39:04.164Z,5.70
2023-02-14T05:41:31.136Z,6.10
2023-02-14T05:43:57.758Z,5.90
2023-02-14T05:46:24.376Z,5.80
2023-02-14T05:48:50.953Z,5.90
2023-02-14T05:51:17.550Z,5.90
2023-02-14T05:53:44.104Z,5.90
2023-02-14T05:56:10.731Z,6.00
2023-02-14T05:58:37.324Z,5.90
2023-02-14T06:01:03.974Z,6.00
2023-02-14T06:03:30.629Z,6.00
2023-02-14T06:05:57.196Z,6.00
2023-02-14T06:08:24.026Z,6.00
2023-02-14T06:10:50.590Z,6.10
2023-02-14T06:13:17.604Z,6.00
2023-02-14T06:15:44.208Z,6.00
2023-02-14T06:18:10.872Z,5.90
2023-02-14T06:20:37.462Z,5.80
2023-02-14T06:23:04.164Z,5.70
2023-02-14T06:25:30.849Z,5.80
2023-02-14T06:27:58.894Z,5.80
2023-02-14T06:30:26.132Z,5.90
2023-02-14T06:32:53.434Z,5.90
2023-02-14T06:35:20.100Z,5.90
2023-02-14T06:37:46.654Z,5.90
2023-02-14T06:40:14.115Z,5.90
2023-02-14T06:42:41.089Z,6.00
2023-02-14T06:45:08.177Z,6.00
2023-02-14T06:47:35.311Z,6.00
2023-02-14T06:50:04.754Z,6.10
2023-02-14T06:52:32.743Z,6.10
2023-02-14T06:54:59.310Z,6.10
2023-02-14T06:57:25.892Z,6.10
2023-02-14T06:59:52.521Z,6.10
2023-02-14T07:02:19.337Z,6.10
2023-02-14T07:04:46.020Z,6.10
2023-02-14T07:07:12.631Z,6.10
2023-02-14T07:09:39.318Z,6.10
2023-02-14T07:12:06.216Z,6.10
2023-02-14T07:14:32.771Z,6.20
2023-02-14T07:16:59.352Z,6.20
2023-02-14T07:19:26.104Z,6.20
2023-02-14T07:21:52.707Z,6.20
2023-02-14T07:24:19.356Z,6.20
2023-02-14T07:26:46.157Z,6.20
2023-02-14T07:29:12.826Z,6.30
2023-02-14T07:31:39.518Z,6.30
2023-02-14T07:34:06.148Z,6.30
2023-02-14T07:36:32.798Z,6.30
2023-02-14T07:38:59.413Z,6.30
2023-02-14T07:41:25.951Z,6.20
2023-02-14T07:43:52.532Z,6.30
2023-02-14T07:46:19.150Z,6.40
2023-02-14T07:48:45.850Z,6.40
2023-02-14T07:51:12.413Z,6.40
2023-02-14T07:53:39.050Z,6.40
2023-02-14T07:56:05.925Z,6.40
2023-02-14T07:58:32.544Z,6.40
2023-02-14T08:00:59.519Z,6.40
2023-02-14T08:03:26.295Z,6.40
2023-02-14T08:05:57.178Z,6.50
2023-02-14T08:08:26.310Z,6.30
2023-02-14T08:10:53.053Z,6.60
2023-02-14T08:13:19.970Z,6.60
2023-02-14T08:16:04.638Z,6.60
2023-02-14T08:18:40.304Z,6.60
2023-02-14T08:21:09.802Z,6.70
2023-02-14T08:23:37.487Z,6.70
2023-02-14T08:26:04.517Z,6.70
2023-02-14T08:28:33.002Z,6.60
2023-02-14T08:31:00.102Z,6.70
2023-02-14T08:33:27.010Z,6.60
2023-02-14T08:35:53.657Z,6.60
2023-02-14T08:38:20.316Z,6.60
2023-02-14T08:40:47.574Z,6.70
2023-02-14T08:43:14.541Z,6.80
2023-02-14T08:45:41.490Z,6.80
2023-02-14T08:48:10.412Z,6.80
2023-02-14T08:50:40.485Z,6.70
2023-02-14T08:53:08.736Z,6.90
2023-02-14T08:55:36.117Z,6.90
2023-02-14T08:58:03.524Z,7.00
2023-02-14T09:00:31.162Z,7.00
2023-02-14T09:02:57.823Z,7.00
2023-02-14T09:05:25.000Z,7.00
2023-02-14T09:07:52.048Z,7.10
2023-02-14T09:10:18.862Z,7.10
2023-02-14T09:12:45.690Z,7.10
2023-02-14T09:15:12.833Z,7.20
2023-02-14T09:17:39.795Z,7.20
2023-02-14T09:20:11.564Z,7.20
2023-02-14T09:22:38.476Z,7.20
2023-02-14T09:25:05.750Z,7.20
2023-02-14T09:27:32.506Z,7.20
2023-02-14T09:29:59.213Z,7.30
2023-02-14T09:32:27.052Z,7.30
2023-02-14T09:35:12.587Z,7.30
2023-02-14T09:37:39.165Z,7.30
2023-02-14T09:40:06.243Z,7.40
2023-02-14T09:42:51.588Z,7.40
2023-02-14T09:45:29.814Z,7.40
2023-02-14T09:47:59.955Z,7.40
2023-02-14T09:50:51.153Z,7.40
2023-02-14T09:53:29.848Z,7.30
2023-02-14T09:56:29.152Z,7.30
2023-02-14T09:59:24.044Z,7.40
2023-02-14T10:02:22.775Z,7.40
2023-02-14T10:05:06.891Z,7.60
2023-02-14T10:08:09.341Z,7.50
2023-02-14T10:10:42.427Z,7.50
2023-02-14T10:13:18.034Z,7.50
2023-02-14T10:15:48.479Z,7.40
2023-02-14T10:18:27.636Z,7.60
2023-02-14T10:20:59.977Z,7.50
2023-02-14T10:23:41.176Z,7.50
2023-02-14T10:26:12.124Z,7.40
2023-02-14T10:28:49.136Z,7.60
2023-02-14T10:31:28.898Z,7.70
2023-02-14T10:34:35.878Z,7.70
2023-02-14T10:37:31.502Z,7.70
2023-02-14T10:40:17.512Z,7.70
2023-02-14T10:43:18.919Z,7.70
2023-02-14T10:46:13.459Z,7.70
2023-02-14T10:48:54.898Z,7.70
2023-02-14T10:51:39.385Z,7.60
2023-02-14T10:54:26.557Z,7.70
2023-02-14T10:57:01.100Z,7.80
2023-02-14T10:59:51.098Z,7.90
2023-02-14T11:02:24.898Z,7.80
2023-02-14T11:04:52.274Z,7.70
2023-02-14T11:07:21.469Z,7.60
2023-02-14T11:09:48.371Z,7.70
2023-02-14T11:12:39.029Z,7.80
2023-02-14T11:15:14.744Z,7.80
2023-02-14T11:17:42.464Z,7.80
2023-02-14T11:20:30.383Z,8.00
2023-02-14T11:22:57.450Z,7.90
2023-02-14T11:25:28.502Z,8.00
2023-02-14T11:28:02.711Z,8.00
2023-02-14T11:30:38.498Z,8.00
2023-02-14T11:33:06.569Z,8.00
2023-02-14T11:35:37.110Z,8.10
2023-02-14T11:38:06.719Z,8.10
2023-02-14T11:40:40.403Z,8.10
2023-02-14T11:43:15.748Z,8.10
2023-02-14T11:45:44.430Z,8.00
2023-02-14T11:48:22.347Z,8.00
2023-02-14T11:50:56.906Z,8.00
2023-02-14T11:53:44.029Z,8.10
2023-02-14T11:56:11.519Z,8.10
2023-02-14T11:58:44.945Z,8.20
2023-02-14T12:01:20.743Z,8.20
2023-02-14T12:03:50.748Z,8.20
2023-02-14T12:06:29.944Z,8.30
2023-02-14T12:09:27.811Z,8.20
2023-02-14T12:11:59.767Z,8.10
2023-02-14T12:14:31.960Z,8.10
2023-02-14T12:17:07.086Z,8.00
2023-02-14T12:20:02.625Z,8.10
2023-02-14T12:22:41.909Z,8.00
2023-02-14T12:25:19.039Z,7.90
2023-02-14T12:28:06.036Z,8.00
2023-02-14T12:30:35.064Z,8.10
2023-02-14T12:33:02.029Z,8.10
2023-02-14T12:35:46.975Z,8.10
2023-02-14T12:38:29.842Z,7.90
2023-02-14T12:41:26.622Z,8.00
2023-02-14T12:43:58.396Z,7.80
2023-02-14T12:46:40.596Z,8.00
2023-02-14T12:49:26.832Z,8.00
2023-02-14T12:52:25.898Z,8.10
2023-02-14T12:55:09.095Z,8.20
2023-02-14T12:57:44.590Z,8.30
2023-02-14T13:00:29.725Z,8.40
2023-02-14T13:03:46.746Z,8.40
2023-02-14T13:06:35.193Z,8.50
2023-02-14T13:09:26.845Z,8.30
2023-02-14T13:12:01.733Z,8.40
2023-02-14T13:15:01.173Z,8.20
2023-02-14T13:17:56.194Z,8.20
2023-02-14T13:20:38.804Z,8.10
2023-02-14T13:23:19.099Z,8.10
2023-02-14T13:25:55.471Z,8.00
2023-02-14T13:28:22.427Z,8.10
2023-02-14T13:30:49.218Z,8.10
2023-02-14T13:33:35.050Z,8.00
2023-02-14T13:36:05.730Z,8.00
2023-02-14T13:38:32.881Z,7.90
2023-02-14T13:41:01.584Z,8.00
2023-02-14T13:43:51.506Z,8.10
2023-02-14T13:46:21.618Z,8.20
2023-02-14T13:49:31.749Z,8.10
2023-02-14T13:52:06.455Z,7.90
2023-02-14T13:54:45.889Z,8.10
2023-02-14T13:57:34.025Z,8.00
2023-02-14T14:00:19.088Z,8.00
2023-02-14T14:02:53.510Z,8.20
2023-02-14T14:05:43.641Z,8.20
2023-02-14T14:08:22.735Z,8.10
2023-02-14T14:10:53.009Z,8.10
2023-02-14T14:13:41.487Z,8.00
2023-02-14T14:16:23.578Z,8.00
2023-02-14T14:19:07.661Z,8.10
2023-02-14T14:21:39.908Z,8.00
2023-02-14T14:24:28.846Z,7.90
2023-02-14T14:27:15.908Z,7.90
2023-02-14T14:30:04.807Z,7.90
2023-02-14T14:32:37.242Z,7.80
2023-02-14T14:35:11.706Z,7.70
2023-02-14T14:37:54.408Z,7.70
2023-02-14T14:40:35.334Z,7.80
2023-02-14T14:43:21.725Z,7.70
2023-02-14T14:45:51.478Z,7.70
2023-02-14T14:48:26.152Z,7.80
2023-02-14T14:50:52.753Z,7.70
2023-02-14T14:53:29.249Z,7.70
2023-02-14T14:55:56.802Z,7.70
2023-02-14T14:58:31.103Z,7.70
2023-02-14T15:00:58.218Z,7.60
2023-02-14T15:03:28.214Z,7.50
2023-02-14T15:06:17.357Z,7.40
2023-02-14T15:08:45.232Z,7.40
2023-02-14T15:11:45.689Z,7.40
2023-02-14T15:14:21.673Z,7.40
2023-02-14T15:16:57.467Z,7.30
2023-02-14T15:19:33.357Z,7.30
2023-02-14T15:22:02.056Z,7.30
2023-02-14T15:24:30.420Z,7.10
2023-02-14T15:26:57.419Z,7.10
2023-02-14T15:29:32.333Z,7.20
2023-02-14T15:32:03.090Z,7.00
2023-02-14T15:34:32.818Z,7.20
2023-02-14T15:37:05.994Z,7.10
2023-02-14T15:39:53.082Z,6.60
2023-02-14T15:42:32.796Z,7.00
2023-02-14T15:45:27.882Z,7.00
2023-02-14T15:48:04.961Z,7.00
2023-02-14T15:50:34.824Z,6.80
2023-02-14T15:53:27.597Z,6.90
2023-02-14T15:55:55.181Z,6.80
2023-02-14T15:58:26.651Z,6.80
2023-02-14T16:00:54.279Z,6.60
2023-02-14T16:03:23.895Z,6.60
2023-02-14T16:05:51.264Z,6.60
2023-02-14T16:08:31.580Z,6.60
2023-02-14T16:11:08.717Z,6.60
2023-02-14T16:13:37.750Z,6.60
2023-02-14T16:16:07.104Z,6.70
2023-02-14T16:18:41.328Z,6.70
2023-02-14T16:21:29.303Z,6.70
2023-02-14T16:24:07.930Z,6.70
2023-02-14T16:26:37.870Z,6.80
2023-02-14T16:29:05.874Z,6.70
2023-02-14T16:31:33.637Z,6.70
2023-02-14T16:34:00.359Z,6.80
2023-02-14T16:36:29.876Z,6.80
2023-02-14T16:38:57.666Z,6.70
2023-02-14T16:41:27.280Z,6.60
2023-02-14T16:43:54.827Z,6.70
2023-02-14T16:46:25.166Z,6.60
2023-02-14T16:48:52.609Z,6.60
2023-02-14T16:51:22.164Z,6.30
2023-02-14T16:53:49.719Z,6.60
2023-02-14T16:56:44.126Z,6.50
2023-02-14T16:59:10.818Z,6.40
2023-02-14T17:01:37.401Z,5.00
2023-02-14T17:04:04.712Z,6.30
2023-02-14T17:06:32.444Z,6.40
2023-02-14T17:09:04.275Z,6.40
2023-02-14T17:11:31.999Z,6.40
2023-02-14T17:13:58.604Z,6.50
2023-02-14T17:16:25.221Z,6.50
2023-02-14T17:18:52.798Z,6.50
2023-02-14T17:21:24.370Z,6.50
2023-02-14T17:23:50.986Z,6.40
2023-02-14T17:26:20.573Z,6.30
2023-02-14T17:28:47.270Z,6.30
2023-02-14T17:31:14.086Z,6.20
2023-02-14T17:33:40.782Z,6.30
2023-02-14T17:36:11.864Z,6.20
2023-02-14T17:38:39.924Z,6.30
2023-02-14T17:41:18.731Z,6.30
2023-02-14T17:43:46.153Z,6.20
2023-02-14T17:46:14.276Z,6.30
2023-02-14T17:48:42.101Z,6.30
2023-02-14T17:51:09.494Z,6.30
2023-02-14T17:53:36.360Z,6.30
2023-02-14T17:56:08.581Z,6.30
2023-02-14T17:58:36.012Z,6.30
2023-02-14T18:01:07.581Z,6.30
2023-02-14T18:03:34.564Z,6.30
2023-02-14T18:06:03.405Z,6.30
2023-02-14T18:08:32.449Z,6.20
2023-02-14T18:10:59.335Z,6.20
2023-02-14T18:13:26.415Z,6.20
2023-02-14T18:15:53.319Z,6.20
2023-02-14T18:18:20.506Z,6.20
2023-02-14T18:20:55.026Z,6.20
2023-02-14T18:23:22.331Z,6.10
2023-02-14T18:25:51.549Z,6.10
2023-02-14T18:28:21.955Z,6.00
2023-02-14T18:30:48.631Z,5.90
2023-02-14T18:33:15.733Z,5.90
2023-02-14T18:35:42.427Z,6.60
2023-02-14T18:38:09.398Z,6.00
2023-02-14T18:40:39.322Z,6.00
2023-02-14T18:43:11.810Z,6.00
2023-02-14T18:45:40.816Z,6.00
2023-02-14T18:48:17.878Z,6.10
2023-02-14T18:50:44.588Z,6.10
2023-02-14T18:53:11.265Z,6.00
2023-02-14T18:55:38.274Z,6.10
2023-02-14T18:58:07.681Z,6.00
2023-02-14T19:00:34.923Z,6.00
2023-02-14T19:03:01.558Z,6.00
2023-02-14T19:05:28.235Z,6.00
2023-02-14T19:07:55.757Z,6.00
2023-02-14T19:10:22.370Z,6.00
2023-02-14T19:12:48.977Z,5.80
2023-02-14T19:15:15.722Z,5.90
2023-02-14T19:17:42.305Z,5.80
2023-02-14T19:20:09.430Z,5.70
2023-02-14T19:22:40.956Z,5.70
2023-02-14T19:25:08.770Z,5.80
2023-02-14T19:27:35.366Z,5.70
2023-02-14T19:30:02.199Z,5.80
2023-02-14T19:32:29.106Z,5.80
2023-02-14T19:34:57.307Z,5.80
2023-02-14T19:37:24.078Z,5.80
2023-02-14T19:39:51.323Z,5.70
2023-02-14T19:42:17.937Z,5.70
2023-02-14T19:44:46.124Z,5.70
2023-02-14T19:47:28.747Z,5.70
2023-02-14T19:49:57.802Z,5.80
2023-02-14T19:52:26.631Z,5.80
2023-02-14T19:54:55.377Z,5.10
2023-02-14T19:57:22.080Z,5.50
2023-02-14T19:59:48.901Z,5.50
2023-02-14T20:02:17.931Z,5.60
2023-02-14T20:04:44.586Z,5.70
2023-02-14T20:07:11.299Z,5.70
2023-02-14T20:09:40.259Z,5.70
2023-02-14T20:12:07.256Z,5.70
2023-02-14T20:14:49.890Z,5.70
2023-02-14T20:17:17.905Z,5.70
2023-02-14T20:19:44.583Z,6.70
2023-02-14T20:22:11.170Z,5.40
2023-02-14T20:24:37.735Z,5.30
2023-02-14T20:27:04.464Z,5.50
2023-02-14T20:29:31.105Z,5.60
2023-02-14T20:32:01.343Z,5.60
2023-02-14T20:34:29.425Z,5.60
2023-02-14T20:36:56.530Z,5.60
2023-02-14T20:39:28.656Z,5.70
2023-02-14T20:41:55.239Z,5.70
2023-02-14T20:44:22.799Z,5.70
2023-02-14T20:46:51.855Z,5.70
2023-02-14T20:49:23.292Z,5.60
2023-02-14T20:51:50.771Z,5.50
2023-02-14T20:54:22.447Z,5.60
2023-02-14T20:56:50.605Z,5.50
2023-02-14T20:59:19.269Z,5.50
2023-02-14T21:01:46.093Z,5.50
2023-02-14T21:04:14.216Z,5.60
2023-02-14T21:06:40.981Z,5.50
2023-02-14T21:09:08.437Z,5.50
2023-02-14T21:11:35.125Z,5.50
2023-02-14T21:14:02.045Z,5.40
2023-02-14T21:16:30.271Z,5.40
2023-02-14T21:18:59.144Z,5.30
2023-02-14T21:21:34.628Z,5.40
2023-02-14T21:24:07.502Z,5.30
2023-02-14T21:26:34.412Z,5.30
2023-02-14T21:29:01.589Z,5.30
2023-02-14T21:31:28.399Z,5.40
2023-02-14T21:33:59.499Z,5.40
2023-02-14T21:36:29.551Z,5.30
2023-02-14T21:38:58.321Z,5.40
2023-02-14T21:41:28.328Z,5.40
2023-02-14T21:43:56.415Z,5.40
2023-02-14T21:46:27.377Z,5.40
2023-02-14T21:49:14.014Z,5.30
2023-02-14T21:51:41.268Z,5.30
2023-02-14T21:54:08.221Z,5.20
2023-02-14T21:56:35.793Z,5.30
2023-02-14T21:59:02.466Z,5.00
2023-02-14T22:01:31.899Z,5.10
2023-02-14T22:03:59.068Z,5.10
2023-02-14T22:06:27.313Z,5.20
2023-02-14T22:08:55.808Z,5.10
2023-02-14T22:11:25.501Z,5.20
2023-02-14T22:13:52.178Z,5.20
2023-02-14T22:16:20.344Z,5.10
2023-02-14T22:18:47.883Z,5.10
2023-02-14T22:21:17.784Z,5.10
2023-02-14T22:23:44.915Z,5.10
2023-02-14T22:26:18.557Z,5.10
2023-02-14T22:28:47.403Z,5.00
2023-02-14T22:31:16.417Z,5.00
2023-02-14T22:33:43.509Z,5.00
2023-02-14T22:36:10.445Z,5.00
2023-02-14T22:38:38.077Z,5.00
2023-02-14T22:41:09.936Z,5.00
2023-02-14T22:43:37.944Z,5.10
2023-02-14T22:46:06.382Z,5.00
2023-02-14T22:48:34.948Z,5.10
2023-02-14T22:51:16.985Z,5.10
2023-02-14T22:53:43.779Z,5.00
2023-02-14T22:56:22.177Z,4.90
2023-02-14T22:58:52.516Z,4.70
2023-02-14T23:01:20.841Z,4.70
2023-02-14T23:03:48.406Z,4.70
2023-02-14T23:06:15.262Z,4.70
2023-02-14T23:08:47.116Z,4.20
2023-02-14T23:11:19.918Z,4.60
2023-02-14T23:14:05.792Z,4.60
2023-02-14T23:16:51.052Z,4.60
2023-02-14T23:19:42.936Z,4.50
2023-02-14T23:22:12.475Z,4.40
2023-02-14T23:24:39.368Z,4.50
2023-02-14T23:27:06.764Z,4.50
2023-02-14T23:29:33.792Z,4.50
2023-02-14T23:32:00.532Z,4.50
2023-02-14T23:34:29.676Z,4.60
2023-02-14T23:36:56.289Z,4.60
2023-02-14T23:39:23.053Z,4.60
2023-02-14T23:41:50.107Z,4.60
2023-02-14T23:44:30.230Z,4.60
2023-02-14T23:46:59.098Z,4.50
2023-02-14T23:49:26.824Z,4.30
2023-02-14T23:51:55.162Z,4.40
2023-02-14T23:54:23.112Z,4.40
2023-02-14T23:56:50.618Z,4.40
2023-02-14T23:59:17.737Z,4.40
